sensor_id;sensor_type;location;lat;lon;timestamp;P1;durP1;ratioP1;P2;durP2;ratioP2
30681;SDS011;17439;48.092;11.842;2023-05-08T00:01:23;5.57;;;4.05;;
30681;SDS011;17439;48.092;11.842;2023-05-08T00:03:50;7.15;;;4.03;;
30681;SDS011;17439;48.092;11.842;2023-05-08T00:06:17;6.35;;;3.75;;
30681;SDS011;17439;48.092;11.842;2023-05-08T00:08:44;6.38;;;4.65;;
30681;SDS011;17439;48.092;11.842;2023-05-08T00:11:11;7.18;;;4.55;;
30681;SDS011;17439;48.092;11.842;2023-05-08T00:13:38;6.57;;;4.40;;
30681;SDS011;17439;48.092;11.842;2023-05-08T00:16:05;5.80;;;3.83;;
30681;SDS011;17439;48.092;11.842;2023-05-08T00:18:31;11.55;;;4.88;;
30681;SDS011;17439;48.092;11.842;2023-05-08T00:20:58;9.55;;;4.38;;
30681;SDS011;17439;48.092;11.842;2023-05-08T00:23:24;7.82;;;4.93;;
30681;SDS011;17439;48.092;11.842;2023-05-08T00:25:51;7.15;;;4.15;;
30681;SDS011;17439;48.092;11.842;2023-05-08T00:28:18;5.95;;;3.92;;
30681;SDS011;17439;48.092;11.842;2023-05-08T00:30:45;6.22;;;4.15;;
30681;SDS011;17439;48.092;11.842;2023-05-08T00:33:11;6.38;;;3.90;;
30681;SDS011;17439;48.092;11.842;2023-05-08T00:35:38;7.20;;;4.13;;
30681;SDS011;17439;48.092;11.842;2023-05-08T00:38:04;5.82;;;4.45;;
30681;SDS011;17439;48.092;11.842;2023-05-08T00:40:31;6.10;;;3.88;;
30681;SDS011;17439;48.092;11.842;2023-05-08T00:42:58;7.13;;;4.82;;
30681;SDS011;17439;48.092;11.842;2023-05-08T00:45:26;9.88;;;4.38;;
30681;SDS011;17439;48.092;11.842;2023-05-08T00:47:58;10.15;;;4.68;;
30681;SDS011;17439;48.092;11.842;2023-05-08T00:50:25;7.05;;;4.95;;
30681;SDS011;17439;48.092;11.842;2023-05-08T00:52:52;9.18;;;5.57;;
30681;SDS011;17439;48.092;11.842;2023-05-08T00:55:19;7.57;;;5.50;;
30681;SDS011;17439;48.092;11.842;2023-05-08T00:57:46;8.35;;;5.22;;
30681;SDS011;17439;48.092;11.842;2023-05-08T01:00:15;7.82;;;5.22;;
30681;SDS011;17439;48.092;11.842;2023-05-08T01:02:43;6.95;;;4.50;;
30681;SDS011;17439;48.092;11.842;2023-05-08T01:07:38;8.20;;;5.40;;
30681;SDS011;17439;48.092;11.842;2023-05-08T01:10:05;9.10;;;5.32;;
30681;SDS011;17439;48.092;11.842;2023-05-08T01:12:36;8.13;;;5.93;;
30681;SDS011;17439;48.092;11.842;2023-05-08T01:15:17;11.77;;;6.38;;
30681;SDS011;17439;48.092;11.842;2023-05-08T01:18:06;9.65;;;5.75;;
30681;SDS011;17439;48.092;11.842;2023-05-08T01:20:43;9.35;;;5.70;;
30681;SDS011;17439;48.092;11.842;2023-05-08T01:23:19;11.70;;;5.90;;
30681;SDS011;17439;48.092;11.842;2023-05-08T01:28:50;8.88;;;5.88;;
30681;SDS011;17439;48.092;11.842;2023-05-08T01:34:37;8.07;;;5.78;;
30681;SDS011;17439;48.092;11.842;2023-05-08T01:37:10;8.48;;;5.45;;
30681;SDS011;17439;48.092;11.842;2023-05-08T01:39:43;9.32;;;5.78;;
30681;SDS011;17439;48.092;11.842;2023-05-08T01:45:01;12.88;;;7.78;;
30681;SDS011;17439;48.092;11.842;2023-05-08T01:47:34;11.68;;;5.57;;
30681;SDS011;17439;48.092;11.842;2023-05-08T01:50:05;6.95;;;5.53;;
30681;SDS011;17439;48.092;11.842;2023-05-08T01:52:41;8.77;;;5.20;;
30681;SDS011;17439;48.092;11.842;2023-05-08T01:55:13;9.48;;;5.57;;
30681;SDS011;17439;48.092;11.842;2023-05-08T01:57:46;9.95;;;5.13;;
30681;SDS011;17439;48.092;11.842;2023-05-08T02:00:18;7.97;;;4.93;;
30681;SDS011;17439;48.092;11.842;2023-05-08T02:02:46;8.43;;;4.95;;
30681;SDS011;17439;48.092;11.842;2023-05-08T02:05:15;7.55;;;5.25;;
30681;SDS011;17439;48.092;11.842;2023-05-08T02:07:45;10.30;;;5.90;;
30681;SDS011;17439;48.092;11.842;2023-05-08T02:10:14;7.03;;;5.15;;
30681;SDS011;17439;48.092;11.842;2023-05-08T02:12:44;9.55;;;5.70;;
30681;SDS011;17439;48.092;11.842;2023-05-08T02:15:13;8.00;;;4.70;;
30681;SDS011;17439;48.092;11.842;2023-05-08T02:17:42;6.70;;;4.43;;
30681;SDS011;17439;48.092;11.842;2023-05-08T02:20:11;6.20;;;4.05;;
30681;SDS011;17439;48.092;11.842;2023-05-08T02:22:43;9.05;;;5.13;;
30681;SDS011;17439;48.092;11.842;2023-05-08T02:25:13;10.38;;;3.58;;
30681;SDS011;17439;48.092;11.842;2023-05-08T02:27:41;6.88;;;3.60;;
30681;SDS011;17439;48.092;11.842;2023-05-08T02:30:11;6.78;;;3.70;;
30681;SDS011;17439;48.092;11.842;2023-05-08T02:32:41;7.25;;;4.18;;
30681;SDS011;17439;48.092;11.842;2023-05-08T02:35:13;7.13;;;4.28;;
30681;SDS011;17439;48.092;11.842;2023-05-08T02:37:43;7.32;;;4.55;;
30681;SDS011;17439;48.092;11.842;2023-05-08T02:40:12;7.22;;;4.70;;
30681;SDS011;17439;48.092;11.842;2023-05-08T02:45:08;10.98;;;5.65;;
30681;SDS011;17439;48.092;11.842;2023-05-08T02:47:41;6.20;;;4.53;;
30681;SDS011;17439;48.092;11.842;2023-05-08T02:50:14;5.95;;;4.13;;
30681;SDS011;17439;48.092;11.842;2023-05-08T02:52:48;7.90;;;4.45;;
30681;SDS011;17439;48.092;11.842;2023-05-08T02:58:01;7.32;;;4.65;;
30681;SDS011;17439;48.092;11.842;2023-05-08T03:00:44;5.78;;;3.97;;
30681;SDS011;17439;48.092;11.842;2023-05-08T03:03:23;4.63;;;3.30;;
30681;SDS011;17439;48.092;11.842;2023-05-08T03:05:53;6.15;;;3.95;;
30681;SDS011;17439;48.092;11.842;2023-05-08T03:08:25;7.38;;;4.57;;
30681;SDS011;17439;48.092;11.842;2023-05-08T03:10:56;6.88;;;4.78;;
30681;SDS011;17439;48.092;11.842;2023-05-08T03:13:27;7.72;;;3.90;;
30681;SDS011;17439;48.092;11.842;2023-05-08T03:15:57;10.90;;;4.55;;
30681;SDS011;17439;48.092;11.842;2023-05-08T03:18:34;7.45;;;4.85;;
30681;SDS011;17439;48.092;11.842;2023-05-08T03:21:02;7.95;;;4.88;;
30681;SDS011;17439;48.092;11.842;2023-05-08T03:23:31;7.90;;;4.72;;
30681;SDS011;17439;48.092;11.842;2023-05-08T03:26:01;6.53;;;4.22;;
30681;SDS011;17439;48.092;11.842;2023-05-08T03:28:28;8.23;;;4.90;;
30681;SDS011;17439;48.092;11.842;2023-05-08T03:30:57;6.20;;;3.97;;
30681;SDS011;17439;48.092;11.842;2023-05-08T03:33:26;7.20;;;4.70;;
30681;SDS011;17439;48.092;11.842;2023-05-08T03:35:56;9.30;;;5.07;;
30681;SDS011;17439;48.092;11.842;2023-05-08T03:38:23;6.70;;;5.07;;
30681;SDS011;17439;48.092;11.842;2023-05-08T03:40:51;6.43;;;4.68;;
30681;SDS011;17439;48.092;11.842;2023-05-08T03:43:18;8.43;;;5.43;;
30681;SDS011;17439;48.092;11.842;2023-05-08T03:45:46;9.23;;;4.88;;
30681;SDS011;17439;48.092;11.842;2023-05-08T03:48:14;6.97;;;4.63;;
30681;SDS011;17439;48.092;11.842;2023-05-08T03:50:42;10.00;;;5.45;;
30681;SDS011;17439;48.092;11.842;2023-05-08T03:53:09;10.05;;;5.15;;
30681;SDS011;17439;48.092;11.842;2023-05-08T03:55:36;8.57;;;5.03;;
30681;SDS011;17439;48.092;11.842;2023-05-08T03:58:16;11.90;;;4.97;;
30681;SDS011;17439;48.092;11.842;2023-05-08T04:03:17;6.95;;;5.00;;
30681;SDS011;17439;48.092;11.842;2023-05-08T04:05:51;6.95;;;4.65;;
30681;SDS011;17439;48.092;11.842;2023-05-08T04:08:27;7.53;;;5.07;;
30681;SDS011;17439;48.092;11.842;2023-05-08T04:11:03;10.43;;;5.55;;
30681;SDS011;17439;48.092;11.842;2023-05-08T04:13:42;7.13;;;4.93;;
30681;SDS011;17439;48.092;11.842;2023-05-08T04:16:23;7.18;;;4.63;;
30681;SDS011;17439;48.092;11.842;2023-05-08T04:18:56;5.97;;;4.38;;
30681;SDS011;17439;48.092;11.842;2023-05-08T04:21:27;10.45;;;6.03;;
30681;SDS011;17439;48.092;11.842;2023-05-08T04:23:57;7.18;;;4.53;;
30681;SDS011;17439;48.092;11.842;2023-05-08T04:26:25;10.23;;;6.07;;
30681;SDS011;17439;48.092;11.842;2023-05-08T04:28:55;6.50;;;4.43;;
30681;SDS011;17439;48.092;11.842;2023-05-08T04:31:22;6.22;;;4.25;;
30681;SDS011;17439;48.092;11.842;2023-05-08T04:33:50;7.40;;;4.63;;
30681;SDS011;17439;48.092;11.842;2023-05-08T04:36:17;7.38;;;4.88;;
30681;SDS011;17439;48.092;11.842;2023-05-08T04:38:44;8.07;;;4.60;;
30681;SDS011;17439;48.092;11.842;2023-05-08T04:41:11;10.13;;;5.17;;
30681;SDS011;17439;48.092;11.842;2023-05-08T04:43:38;7.97;;;5.27;;
30681;SDS011;17439;48.092;11.842;2023-05-08T04:46:06;8.45;;;5.35;;
30681;SDS011;17439;48.092;11.842;2023-05-08T04:48:33;7.70;;;5.10;;
30681;SDS011;17439;48.092;11.842;2023-05-08T04:51:00;7.30;;;4.60;;
30681;SDS011;17439;48.092;11.842;2023-05-08T04:53:27;7.75;;;4.88;;
30681;SDS011;17439;48.092;11.842;2023-05-08T04:55:53;7.32;;;3.97;;
30681;SDS011;17439;48.092;11.842;2023-05-08T04:58:20;7.05;;;4.53;;
30681;SDS011;17439;48.092;11.842;2023-05-08T05:00:47;8.95;;;5.10;;
30681;SDS011;17439;48.092;11.842;2023-05-08T05:03:14;6.97;;;4.38;;
30681;SDS011;17439;48.092;11.842;2023-05-08T05:05:41;7.90;;;4.50;;
30681;SDS011;17439;48.092;11.842;2023-05-08T05:08:08;7.13;;;3.80;;
30681;SDS011;17439;48.092;11.842;2023-05-08T05:10:36;10.88;;;4.47;;
30681;SDS011;17439;48.092;11.842;2023-05-08T05:13:03;6.95;;;4.15;;
30681;SDS011;17439;48.092;11.842;2023-05-08T05:15:31;5.43;;;4.22;;
30681;SDS011;17439;48.092;11.842;2023-05-08T05:17:58;7.70;;;4.43;;
30681;SDS011;17439;48.092;11.842;2023-05-08T05:20:24;7.22;;;5.10;;
30681;SDS011;17439;48.092;11.842;2023-05-08T05:22:52;7.60;;;4.95;;
30681;SDS011;17439;48.092;11.842;2023-05-08T05:25:18;8.90;;;5.35;;
30681;SDS011;17439;48.092;11.842;2023-05-08T05:27:45;8.10;;;4.82;;
30681;SDS011;17439;48.092;11.842;2023-05-08T05:30:12;8.85;;;5.60;;
30681;SDS011;17439;48.092;11.842;2023-05-08T05:32:39;6.97;;;5.18;;
30681;SDS011;17439;48.092;11.842;2023-05-08T05:35:06;7.65;;;4.75;;
30681;SDS011;17439;48.092;11.842;2023-05-08T05:37:35;6.43;;;4.30;;
30681;SDS011;17439;48.092;11.842;2023-05-08T05:40:02;6.55;;;4.78;;
30681;SDS011;17439;48.092;11.842;2023-05-08T05:42:31;11.18;;;6.10;;
30681;SDS011;17439;48.092;11.842;2023-05-08T05:44:58;8.70;;;5.22;;
30681;SDS011;17439;48.092;11.842;2023-05-08T05:47:24;6.72;;;4.72;;
30681;SDS011;17439;48.092;11.842;2023-05-08T05:49:51;10.23;;;5.82;;
30681;SDS011;17439;48.092;11.842;2023-05-08T05:52:18;8.65;;;5.38;;
30681;SDS011;17439;48.092;11.842;2023-05-08T05:54:45;7.60;;;4.90;;
30681;SDS011;17439;48.092;11.842;2023-05-08T05:57:12;9.25;;;5.55;;
30681;SDS011;17439;48.092;11.842;2023-05-08T05:59:39;6.32;;;4.55;;
30681;SDS011;17439;48.092;11.842;2023-05-08T06:02:07;6.90;;;4.20;;
30681;SDS011;17439;48.092;11.842;2023-05-08T06:04:34;6.82;;;4.03;;
30681;SDS011;17439;48.092;11.842;2023-05-08T06:07:00;9.48;;;5.88;;
30681;SDS011;17439;48.092;11.842;2023-05-08T06:09:27;8.80;;;5.13;;
30681;SDS011;17439;48.092;11.842;2023-05-08T06:11:54;7.05;;;4.47;;
30681;SDS011;17439;48.092;11.842;2023-05-08T06:14:20;7.93;;;5.22;;
30681;SDS011;17439;48.092;11.842;2023-05-08T06:16:47;7.03;;;5.00;;
30681;SDS011;17439;48.092;11.842;2023-05-08T06:19:14;9.05;;;4.97;;
30681;SDS011;17439;48.092;11.842;2023-05-08T06:21:41;11.80;;;4.38;;
30681;SDS011;17439;48.092;11.842;2023-05-08T06:24:07;8.55;;;4.88;;
30681;SDS011;17439;48.092;11.842;2023-05-08T06:26:34;9.02;;;5.13;;
30681;SDS011;17439;48.092;11.842;2023-05-08T06:29:01;6.93;;;4.82;;
30681;SDS011;17439;48.092;11.842;2023-05-08T06:31:27;12.85;;;5.07;;
30681;SDS011;17439;48.092;11.842;2023-05-08T06:33:54;10.00;;;5.78;;
30681;SDS011;17439;48.092;11.842;2023-05-08T06:36:21;10.50;;;5.28;;
30681;SDS011;17439;48.092;11.842;2023-05-08T06:38:48;9.35;;;4.50;;
30681;SDS011;17439;48.092;11.842;2023-05-08T06:41:14;5.95;;;4.35;;
30681;SDS011;17439;48.092;11.842;2023-05-08T06:43:41;6.35;;;4.45;;
30681;SDS011;17439;48.092;11.842;2023-05-08T06:46:08;6.57;;;4.53;;
30681;SDS011;17439;48.092;11.842;2023-05-08T06:48:35;7.97;;;5.50;;
30681;SDS011;17439;48.092;11.842;2023-05-08T06:51:01;7.18;;;4.38;;
30681;SDS011;17439;48.092;11.842;2023-05-08T06:53:28;9.70;;;6.30;;
30681;SDS011;17439;48.092;11.842;2023-05-08T06:55:55;6.72;;;4.28;;
30681;SDS011;17439;48.092;11.842;2023-05-08T06:58:21;7.60;;;4.57;;
30681;SDS011;17439;48.092;11.842;2023-05-08T07:00:48;10.60;;;4.65;;
30681;SDS011;17439;48.092;11.842;2023-05-08T07:03:15;8.37;;;5.43;;
30681;SDS011;17439;48.092;11.842;2023-05-08T07:05:42;10.43;;;5.13;;
30681;SDS011;17439;48.092;11.842;2023-05-08T07:08:08;12.10;;;5.40;;
30681;SDS011;17439;48.092;11.842;2023-05-08T07:10:35;8.05;;;5.65;;
30681;SDS011;17439;48.092;11.842;2023-05-08T07:13:02;6.65;;;4.60;;
30681;SDS011;17439;48.092;11.842;2023-05-08T07:15:30;8.20;;;5.45;;
30681;SDS011;17439;48.092;11.842;2023-05-08T07:17:57;9.65;;;6.07;;
30681;SDS011;17439;48.092;11.842;2023-05-08T07:20:24;8.07;;;4.70;;
30681;SDS011;17439;48.092;11.842;2023-05-08T07:22:51;11.55;;;5.90;;
30681;SDS011;17439;48.092;11.842;2023-05-08T07:25:17;9.50;;;5.28;;
30681;SDS011;17439;48.092;11.842;2023-05-08T07:27:44;7.85;;;6.20;;
30681;SDS011;17439;48.092;11.842;2023-05-08T07:30:11;9.45;;;5.90;;
30681;SDS011;17439;48.092;11.842;2023-05-08T07:32:38;8.75;;;5.97;;
30681;SDS011;17439;48.092;11.842;2023-05-08T07:35:05;7.80;;;5.60;;
30681;SDS011;17439;48.092;11.842;2023-05-08T07:37:35;10.68;;;5.80;;
30681;SDS011;17439;48.092;11.842;2023-05-08T07:40:02;11.32;;;6.85;;
30681;SDS011;17439;48.092;11.842;2023-05-08T07:42:29;10.68;;;6.25;;
30681;SDS011;17439;48.092;11.842;2023-05-08T07:44:55;8.48;;;5.90;;
30681;SDS011;17439;48.092;11.842;2023-05-08T07:47:22;9.75;;;6.20;;
30681;SDS011;17439;48.092;11.842;2023-05-08T07:49:49;8.30;;;4.95;;
30681;SDS011;17439;48.092;11.842;2023-05-08T07:52:16;9.13;;;6.20;;
30681;SDS011;17439;48.092;11.842;2023-05-08T07:54:42;9.38;;;5.57;;
30681;SDS011;17439;48.092;11.842;2023-05-08T07:57:09;10.50;;;6.70;;
30681;SDS011;17439;48.092;11.842;2023-05-08T07:59:36;11.35;;;6.80;;
30681;SDS011;17439;48.092;11.842;2023-05-08T08:02:02;9.32;;;6.22;;
30681;SDS011;17439;48.092;11.842;2023-05-08T08:04:29;9.50;;;6.15;;
30681;SDS011;17439;48.092;11.842;2023-05-08T08:06:56;11.35;;;7.05;;
30681;SDS011;17439;48.092;11.842;2023-05-08T08:09:22;11.25;;;7.70;;
30681;SDS011;17439;48.092;11.842;2023-05-08T08:11:49;11.52;;;7.45;;
30681;SDS011;17439;48.092;11.842;2023-05-08T08:14:16;8.55;;;6.35;;
30681;SDS011;17439;48.092;11.842;2023-05-08T08:16:42;12.27;;;8.23;;
30681;SDS011;17439;48.092;11.842;2023-05-08T08:19:09;10.93;;;7.22;;
30681;SDS011;17439;48.092;11.842;2023-05-08T08:21:40;17.45;;;7.50;;
30681;SDS011;17439;48.092;11.842;2023-05-08T08:24:07;10.50;;;7.15;;
30681;SDS011;17439;48.092;11.842;2023-05-08T08:26:34;12.95;;;7.50;;
30681;SDS011;17439;48.092;11.842;2023-05-08T08:29:01;13.50;;;7.85;;
30681;SDS011;17439;48.092;11.842;2023-05-08T08:31:28;13.32;;;7.68;;
30681;SDS011;17439;48.092;11.842;2023-05-08T08:33:55;13.30;;;8.18;;
30681;SDS011;17439;48.092;11.842;2023-05-08T08:36:21;12.13;;;8.13;;
30681;SDS011;17439;48.092;11.842;2023-05-08T08:38:48;13.32;;;7.88;;
30681;SDS011;17439;48.092;11.842;2023-05-08T08:41:15;12.40;;;7.80;;
30681;SDS011;17439;48.092;11.842;2023-05-08T08:43:41;12.20;;;7.70;;
30681;SDS011;17439;48.092;11.842;2023-05-08T08:46:11;10.60;;;7.55;;
30681;SDS011;17439;48.092;11.842;2023-05-08T08:48:43;10.73;;;6.45;;
30681;SDS011;17439;48.092;11.842;2023-05-08T08:51:13;10.57;;;6.90;;
30681;SDS011;17439;48.092;11.842;2023-05-08T08:53:52;13.52;;;8.82;;
30681;SDS011;17439;48.092;11.842;2023-05-08T08:56:26;12.93;;;7.93;;
30681;SDS011;17439;48.092;11.842;2023-05-08T08:58:54;14.10;;;8.53;;
30681;SDS011;17439;48.092;11.842;2023-05-08T09:01:22;12.90;;;8.77;;
30681;SDS011;17439;48.092;11.842;2023-05-08T09:03:50;12.48;;;9.20;;
30681;SDS011;17439;48.092;11.842;2023-05-08T09:06:17;14.15;;;9.40;;
30681;SDS011;17439;48.092;11.842;2023-05-08T09:08:45;11.50;;;7.43;;
30681;SDS011;17439;48.092;11.842;2023-05-08T09:11:12;12.73;;;8.18;;
30681;SDS011;17439;48.092;11.842;2023-05-08T09:13:39;11.75;;;8.57;;
30681;SDS011;17439;48.092;11.842;2023-05-08T09:16:06;13.20;;;8.93;;
30681;SDS011;17439;48.092;11.842;2023-05-08T09:18:32;11.30;;;8.32;;
30681;SDS011;17439;48.092;11.842;2023-05-08T09:20:59;14.38;;;8.82;;
30681;SDS011;17439;48.092;11.842;2023-05-08T09:23:26;12.30;;;8.43;;
30681;SDS011;17439;48.092;11.842;2023-05-08T09:25:53;18.98;;;10.23;;
30681;SDS011;17439;48.092;11.842;2023-05-08T09:28:20;14.18;;;8.35;;
30681;SDS011;17439;48.092;11.842;2023-05-08T09:30:49;14.25;;;9.57;;
30681;SDS011;17439;48.092;11.842;2023-05-08T09:33:17;12.98;;;8.50;;
30681;SDS011;17439;48.092;11.842;2023-05-08T09:35:45;12.88;;;9.15;;
30681;SDS011;17439;48.092;11.842;2023-05-08T09:41:31;11.25;;;7.88;;
30681;SDS011;17439;48.092;11.842;2023-05-08T09:44:03;11.68;;;7.55;;
30681;SDS011;17439;48.092;11.842;2023-05-08T09:46:31;13.18;;;8.60;;
30681;SDS011;17439;48.092;11.842;2023-05-08T09:48:59;18.27;;;11.57;;
30681;SDS011;17439;48.092;11.842;2023-05-08T09:51:27;15.95;;;10.50;;
30681;SDS011;17439;48.092;11.842;2023-05-08T09:53:56;16.35;;;11.00;;
30681;SDS011;17439;48.092;11.842;2023-05-08T09:56:30;17.95;;;11.90;;
30681;SDS011;17439;48.092;11.842;2023-05-08T09:59:01;16.15;;;10.10;;
30681;SDS011;17439;48.092;11.842;2023-05-08T10:01:30;16.45;;;10.73;;
30681;SDS011;17439;48.092;11.842;2023-05-08T10:03:59;15.15;;;10.18;;
30681;SDS011;17439;48.092;11.842;2023-05-08T10:06:26;14.88;;;9.35;;
30681;SDS011;17439;48.092;11.842;2023-05-08T10:11:33;14.60;;;10.50;;
30681;SDS011;17439;48.092;11.842;2023-05-08T10:14:00;17.85;;;12.10;;
30681;SDS011;17439;48.092;11.842;2023-05-08T10:16:27;19.77;;;12.93;;
30681;SDS011;17439;48.092;11.842;2023-05-08T10:18:58;18.10;;;12.13;;
30681;SDS011;17439;48.092;11.842;2023-05-08T10:21:27;18.92;;;11.25;;
30681;SDS011;17439;48.092;11.842;2023-05-08T10:23:55;22.25;;;13.82;;
30681;SDS011;17439;48.092;11.842;2023-05-08T10:26:27;16.42;;;10.98;;
30681;SDS011;17439;48.092;11.842;2023-05-08T10:28:57;15.18;;;10.77;;
30681;SDS011;17439;48.092;11.842;2023-05-08T10:31:27;20.90;;;12.45;;
30681;SDS011;17439;48.092;11.842;2023-05-08T10:33:54;16.30;;;10.82;;
30681;SDS011;17439;48.092;11.842;2023-05-08T10:36:24;17.10;;;12.25;;
30681;SDS011;17439;48.092;11.842;2023-05-08T10:38:51;17.20;;;11.05;;
30681;SDS011;17439;48.092;11.842;2023-05-08T10:41:19;18.92;;;11.23;;
30681;SDS011;17439;48.092;11.842;2023-05-08T10:43:46;15.10;;;11.00;;
30681;SDS011;17439;48.092;11.842;2023-05-08T10:46:20;16.42;;;10.30;;
30681;SDS011;17439;48.092;11.842;2023-05-08T10:57:17;14.77;;;9.70;;
30681;SDS011;17439;48.092;11.842;2023-05-08T10:59:44;20.48;;;13.32;;
30681;SDS011;17439;48.092;11.842;2023-05-08T11:02:12;16.77;;;11.15;;
30681;SDS011;17439;48.092;11.842;2023-05-08T11:04:39;12.48;;;9.65;;
30681;SDS011;17439;48.092;11.842;2023-05-08T11:07:06;16.75;;;11.43;;
30681;SDS011;17439;48.092;11.842;2023-05-08T11:14:59;19.30;;;12.38;;
30681;SDS011;17439;48.092;11.842;2023-05-08T11:17:28;18.50;;;10.90;;
30681;SDS011;17439;48.092;11.842;2023-05-08T11:19:55;16.55;;;11.57;;
30681;SDS011;17439;48.092;11.842;2023-05-08T11:22:28;16.10;;;11.80;;
30681;SDS011;17439;48.092;11.842;2023-05-08T11:25:02;16.60;;;11.55;;
30681;SDS011;17439;48.092;11.842;2023-05-08T11:28:08;15.27;;;11.02;;
30681;SDS011;17439;48.092;11.842;2023-05-08T11:38:17;12.20;;;8.85;;
30681;SDS011;17439;48.092;11.842;2023-05-08T11:45:59;14.20;;;9.02;;
30681;SDS011;17439;48.092;11.842;2023-05-08T11:48:27;11.98;;;8.35;;
30681;SDS011;17439;48.092;11.842;2023-05-08T11:50:53;15.40;;;10.50;;
30681;SDS011;17439;48.092;11.842;2023-05-08T11:53:21;17.80;;;10.47;;
30681;SDS011;17439;48.092;11.842;2023-05-08T11:55:48;15.67;;;9.83;;
30681;SDS011;17439;48.092;11.842;2023-05-08T11:58:15;16.13;;;11.95;;
30681;SDS011;17439;48.092;11.842;2023-05-08T12:00:42;16.25;;;11.18;;
30681;SDS011;17439;48.092;11.842;2023-05-08T12:03:14;13.07;;;9.27;;
30681;SDS011;17439;48.092;11.842;2023-05-08T12:05:42;13.75;;;10.50;;
30681;SDS011;17439;48.092;11.842;2023-05-08T12:08:10;14.63;;;10.60;;
30681;SDS011;17439;48.092;11.842;2023-05-08T12:11:00;15.80;;;11.25;;
30681;SDS011;17439;48.092;11.842;2023-05-08T12:13:26;15.02;;;11.15;;
30681;SDS011;17439;48.092;11.842;2023-05-08T12:15:58;18.50;;;12.38;;
30681;SDS011;17439;48.092;11.842;2023-05-08T12:18:26;18.08;;;12.40;;
30681;SDS011;17439;48.092;11.842;2023-05-08T12:23:27;16.40;;;11.20;;
30681;SDS011;17439;48.092;11.842;2023-05-08T12:26:00;14.77;;;10.50;;
30681;SDS011;17439;48.092;11.842;2023-05-08T12:28:27;15.95;;;11.93;;
30681;SDS011;17439;48.092;11.842;2023-05-08T12:30:54;15.73;;;12.07;;
30681;SDS011;17439;48.092;11.842;2023-05-08T12:33:21;20.00;;;12.55;;
30681;SDS011;17439;48.092;11.842;2023-05-08T12:35:49;19.38;;;12.55;;
30681;SDS011;17439;48.092;11.842;2023-05-08T12:38:16;17.40;;;12.60;;
30681;SDS011;17439;48.092;11.842;2023-05-08T12:40:43;17.30;;;12.65;;
30681;SDS011;17439;48.092;11.842;2023-05-08T12:43:11;18.70;;;11.85;;
30681;SDS011;17439;48.092;11.842;2023-05-08T12:45:39;16.92;;;12.35;;
30681;SDS011;17439;48.092;11.842;2023-05-08T12:48:08;20.60;;;14.35;;
30681;SDS011;17439;48.092;11.842;2023-05-08T12:50:40;17.88;;;12.25;;
30681;SDS011;17439;48.092;11.842;2023-05-08T12:53:08;15.63;;;11.55;;
30681;SDS011;17439;48.092;11.842;2023-05-08T12:55:40;19.63;;;13.88;;
30681;SDS011;17439;48.092;11.842;2023-05-08T12:58:19;15.57;;;12.73;;
30681;SDS011;17439;48.092;11.842;2023-05-08T13:00:50;17.65;;;12.82;;
30681;SDS011;17439;48.092;11.842;2023-05-08T13:03:21;17.83;;;12.73;;
30681;SDS011;17439;48.092;11.842;2023-05-08T13:05:50;15.15;;;10.93;;
30681;SDS011;17439;48.092;11.842;2023-05-08T13:08:18;14.18;;;10.65;;
30681;SDS011;17439;48.092;11.842;2023-05-08T13:10:46;17.60;;;12.30;;
30681;SDS011;17439;48.092;11.842;2023-05-08T13:13:18;18.75;;;14.30;;
30681;SDS011;17439;48.092;11.842;2023-05-08T13:15:46;17.02;;;11.70;;
30681;SDS011;17439;48.092;11.842;2023-05-08T13:18:14;14.88;;;11.13;;
30681;SDS011;17439;48.092;11.842;2023-05-08T13:20:42;16.58;;;12.20;;
30681;SDS011;17439;48.092;11.842;2023-05-08T13:23:09;15.07;;;10.80;;
30681;SDS011;17439;48.092;11.842;2023-05-08T13:25:36;17.50;;;11.55;;
30681;SDS011;17439;48.092;11.842;2023-05-08T13:28:04;15.38;;;10.82;;
30681;SDS011;17439;48.092;11.842;2023-05-08T13:30:31;14.63;;;10.43;;
30681;SDS011;17439;48.092;11.842;2023-05-08T13:32:58;15.18;;;10.23;;
30681;SDS011;17439;48.092;11.842;2023-05-08T13:35:25;13.17;;;9.73;;
30681;SDS011;17439;48.092;11.842;2023-05-08T13:37:53;12.95;;;8.95;;
30681;SDS011;17439;48.092;11.842;2023-05-08T13:40:23;12.90;;;9.35;;
30681;SDS011;17439;48.092;11.842;2023-05-08T13:42:50;16.92;;;11.13;;
30681;SDS011;17439;48.092;11.842;2023-05-08T13:45:17;13.73;;;10.65;;
30681;SDS011;17439;48.092;11.842;2023-05-08T13:47:45;15.25;;;9.40;;
30681;SDS011;17439;48.092;11.842;2023-05-08T13:50:14;13.73;;;9.43;;
30681;SDS011;17439;48.092;11.842;2023-05-08T13:52:41;12.85;;;9.43;;
30681;SDS011;17439;48.092;11.842;2023-05-08T13:55:09;12.75;;;9.32;;
30681;SDS011;17439;48.092;11.842;2023-05-08T13:57:37;14.93;;;9.85;;
30681;SDS011;17439;48.092;11.842;2023-05-08T14:00:04;11.70;;;7.88;;
30681;SDS011;17439;48.092;11.842;2023-05-08T14:04:59;13.73;;;9.80;;
30681;SDS011;17439;48.092;11.842;2023-05-08T14:07:25;13.88;;;10.00;;
30681;SDS011;17439;48.092;11.842;2023-05-08T14:09:52;15.05;;;10.25;;
30681;SDS011;17439;48.092;11.842;2023-05-08T14:12:19;10.27;;;7.67;;
30681;SDS011;17439;48.092;11.842;2023-05-08T14:14:46;17.10;;;8.32;;
30681;SDS011;17439;48.092;11.842;2023-05-08T14:17:13;12.55;;;8.50;;
30681;SDS011;17439;48.092;11.842;2023-05-08T14:19:39;12.93;;;8.65;;
30681;SDS011;17439;48.092;11.842;2023-05-08T14:22:06;11.63;;;8.52;;
30681;SDS011;17439;48.092;11.842;2023-05-08T14:24:32;12.57;;;8.55;;
30681;SDS011;17439;48.092;11.842;2023-05-08T14:26:59;11.70;;;7.95;;
30681;SDS011;17439;48.092;11.842;2023-05-08T14:29:26;13.88;;;9.40;;
30681;SDS011;17439;48.092;11.842;2023-05-08T14:31:52;15.05;;;10.30;;
30681;SDS011;17439;48.092;11.842;2023-05-08T14:34:19;13.02;;;8.45;;
30681;SDS011;17439;48.092;11.842;2023-05-08T14:36:46;15.98;;;11.57;;
30681;SDS011;17439;48.092;11.842;2023-05-08T14:39:13;14.80;;;10.18;;
30681;SDS011;17439;48.092;11.842;2023-05-08T14:41:39;16.00;;;10.02;;
30681;SDS011;17439;48.092;11.842;2023-05-08T14:44:13;16.65;;;9.65;;
30681;SDS011;17439;48.092;11.842;2023-05-08T14:46:39;14.10;;;8.57;;
30681;SDS011;17439;48.092;11.842;2023-05-08T14:49:06;11.45;;;8.13;;
30681;SDS011;17439;48.092;11.842;2023-05-08T14:51:33;17.50;;;9.70;;
30681;SDS011;17439;48.092;11.842;2023-05-08T14:53:59;12.10;;;8.88;;
30681;SDS011;17439;48.092;11.842;2023-05-08T14:56:26;12.35;;;8.55;;
30681;SDS011;17439;48.092;11.842;2023-05-08T14:59:00;10.13;;;7.22;;
30681;SDS011;17439;48.092;11.842;2023-05-08T15:01:26;14.70;;;8.82;;
30681;SDS011;17439;48.092;11.842;2023-05-08T15:03:53;9.23;;;6.60;;
30681;SDS011;17439;48.092;11.842;2023-05-08T15:06:20;8.77;;;6.65;;
30681;SDS011;17439;48.092;11.842;2023-05-08T15:08:48;13.60;;;7.47;;
30681;SDS011;17439;48.092;11.842;2023-05-08T15:11:14;12.68;;;7.70;;
30681;SDS011;17439;48.092;11.842;2023-05-08T15:13:41;9.90;;;7.22;;
30681;SDS011;17439;48.092;11.842;2023-05-08T15:16:08;7.30;;;5.28;;
30681;SDS011;17439;48.092;11.842;2023-05-08T15:18:35;8.30;;;5.20;;
30681;SDS011;17439;48.092;11.842;2023-05-08T15:21:01;7.57;;;5.97;;
30681;SDS011;17439;48.092;11.842;2023-05-08T15:23:28;11.38;;;6.68;;
30681;SDS011;17439;48.092;11.842;2023-05-08T15:25:55;10.77;;;6.57;;
30681;SDS011;17439;48.092;11.842;2023-05-08T15:28:21;7.97;;;6.03;;